Pilot Vessel Akarana — ZMT2938 — position and weather

sailwx.info

Track history (hours):
 
Tides and Currents Weather Stations Pressure Air Temp Water Temp Dewpoint Dewpoint Depression Visibility Wind Speed Wind Dir Waves Ship Positions

Pilot Vessel Akarana

Last reported at 2017-Jul-23 15:53 UTC. Time now 2017-Jul-23 16:39 UTC.
Position S 36°48' E 174°49'.

Length 15 m; draft 1.6 m.

Type: Pilot. MMSI: 512000344.

Date/timePositionNaut miles runAvg speedWind from/ knotsBaromVisibWave heightAir tempDewpointWater temp
2017-Jul-23 15:53S 36°48' E 174°49'1 3.2
2017-Jul-23 15:30S 36°47' E 174°49'2 0.2
2017-Jul-23 04:06S 36°49' E 174°49'3 3.0
2017-Jul-23 03:12S 36°46' E 174°49'2 3.0
2017-Jul-23 02:39S 36°48' E 174°49'0 0.1
2017-Jul-22 23:25S 36°48' E 174°49'0 0.0
2017-Jul-21 20:28S 36°48' E 174°49'0 0.0
2017-Jul-20 04:42S 36°48' E 174°49'2 0.1
2017-Jul-18 22:57S 36°50' E 174°47'2 0.1
2017-Jul-17 23:03S 36°48' E 174°49'1 4.1
2017-Jul-17 22:43S 36°47' E 174°48'1 0.3
2017-Jul-17 19:41S 36°48' E 174°49'319.9
2017-Jul-17 19:30S 36°44' E 174°50'4 2.5
2017-Jul-17 17:48S 36°49' E 174°49'612.8
2017-Jul-17 17:18S 36°43' E 174°52'6 0.3
2017-Jul-16 22:06S 36°49' E 174°49'3 2.7
2017-Jul-16 21:02S 36°46' E 174°50'3 0.4
2017-Jul-16 15:16S 36°48' E 174°49'622.7
2017-Jul-16 15:00S 36°43' E 174°52'6 1.4
2017-Jul-16 10:50S 36°48' E 174°49'0 0.1
2017-Jul-16 07:30S 36°48' E 174°49'0 0.5
2017-Jul-16 06:44S 36°48' E 174°49'0 0.0
2017-Jul-15 13:56S 36°48' E 174°49'2 3.8
2017-Jul-15 13:25S 36°47' E 174°49'2 0.9
2017-Jul-15 11:12S 36°49' E 174°49'523.2
2017-Jul-15 11:00S 36°44' E 174°51'4 0.3
2017-Jul-14 22:16S 36°48' E 174°49'0 1.4
2017-Jul-14 21:55S 36°48' E 174°49'0 0.5
2017-Jul-14 21:30S 36°48' E 174°49'5 9.8
2017-Jul-14 21:00S 36°43' E 174°51'5 0.9
2017-Jul-14 15:11S 36°48' E 174°49'422.9
2017-Jul-14 15:00S 36°45' E 174°50'4 0.4
2017-Jul-14 05:07S 36°48' E 174°49'423.5
2017-Jul-14 04:57S 36°44' E 174°50'  
Track history (hours):
 
Tides and Currents Weather Stations Pressure Air Temp Water Temp Dewpoint Dewpoint Depression Visibility Wind Speed Wind Dir Waves Ship Positions

Pilot Vessel Akarana

Last reported at 2017-Jul-23 15:53 UTC. Time now 2017-Jul-23 16:39 UTC.
Position S 36°48' E 174°49'.

Length 15 m; draft 1.6 m.

Type: Pilot. MMSI: 512000344.

Date/timePositionNaut miles runAvg speedWind from/ knotsBaromVisibWave heightAir tempDewpointWater temp
2017-Jul-23 15:53S 36°48' E 174°49'1 3.2
2017-Jul-23 15:30S 36°47' E 174°49'2 0.2
2017-Jul-23 04:06S 36°49' E 174°49'3 3.0
2017-Jul-23 03:12S 36°46' E 174°49'2 3.0
2017-Jul-23 02:39S 36°48' E 174°49'0 0.1
2017-Jul-22 23:25S 36°48' E 174°49'0 0.0
2017-Jul-21 20:28S 36°48' E 174°49'0 0.0
2017-Jul-20 04:42S 36°48' E 174°49'2 0.1
2017-Jul-18 22:57S 36°50' E 174°47'2 0.1
2017-Jul-17 23:03S 36°48' E 174°49'1 4.1
2017-Jul-17 22:43S 36°47' E 174°48'1 0.3
2017-Jul-17 19:41S 36°48' E 174°49'319.9
2017-Jul-17 19:30S 36°44' E 174°50'4 2.5
2017-Jul-17 17:48S 36°49' E 174°49'612.8
2017-Jul-17 17:18S 36°43' E 174°52'6 0.3
2017-Jul-16 22:06S 36°49' E 174°49'3 2.7
2017-Jul-16 21:02S 36°46' E 174°50'3 0.4
2017-Jul-16 15:16S 36°48' E 174°49'622.7
2017-Jul-16 15:00S 36°43' E 174°52'6 1.4
2017-Jul-16 10:50S 36°48' E 174°49'0 0.1
2017-Jul-16 07:30S 36°48' E 174°49'0 0.5
2017-Jul-16 06:44S 36°48' E 174°49'0 0.0
2017-Jul-15 13:56S 36°48' E 174°49'2 3.8
2017-Jul-15 13:25S 36°47' E 174°49'2 0.9
2017-Jul-15 11:12S 36°49' E 174°49'523.2
2017-Jul-15 11:00S 36°44' E 174°51'4 0.3
2017-Jul-14 22:16S 36°48' E 174°49'0 1.4
2017-Jul-14 21:55S 36°48' E 174°49'0 0.5
2017-Jul-14 21:30S 36°48' E 174°49'5 9.8
2017-Jul-14 21:00S 36°43' E 174°51'5 0.9
2017-Jul-14 15:11S 36°48' E 174°49'422.9
2017-Jul-14 15:00S 36°45' E 174°50'4 0.4
2017-Jul-14 05:07S 36°48' E 174°49'423.5
2017-Jul-14 04:57S 36°44' E 174°50'  

Dump ship's entire track history